sensor_id;sensor_type;location;lat;lon;timestamp;P1;durP1;ratioP1;P2;durP2;ratioP2
45466;SDS011;31212;49.734;8.490;2023-02-28T00:00:07;2.70;;;2.10;;
45466;SDS011;31212;49.734;8.490;2023-02-28T00:02:35;2.23;;;0.70;;
45466;SDS011;31212;49.734;8.490;2023-02-28T00:05:02;0.37;;;0.37;;
45466;SDS011;31212;49.734;8.490;2023-02-28T00:07:29;0.70;;;0.70;;
45466;SDS011;31212;49.734;8.490;2023-02-28T00:09:55;0.70;;;0.70;;
45466;SDS011;31212;49.734;8.490;2023-02-28T00:12:23;4.03;;;0.70;;
45466;SDS011;31212;49.734;8.490;2023-02-28T00:14:50;0.77;;;0.77;;
45466;SDS011;31212;49.734;8.490;2023-02-28T00:17:17;0.40;;;0.40;;
45466;SDS011;31212;49.734;8.490;2023-02-28T00:19:46;0.67;;;0.67;;
45466;SDS011;31212;49.734;8.490;2023-02-28T00:22:12;6.70;;;1.17;;
45466;SDS011;31212;49.734;8.490;2023-02-28T00:24:39;0.40;;;0.40;;
45466;SDS011;31212;49.734;8.490;2023-02-28T00:27:05;1.23;;;0.87;;
45466;SDS011;31212;49.734;8.490;2023-02-28T00:29:33;0.40;;;0.40;;
45466;SDS011;31212;49.734;8.490;2023-02-28T00:32:00;0.40;;;0.40;;
45466;SDS011;31212;49.734;8.490;2023-02-28T00:34:27;1.60;;;0.80;;
45466;SDS011;31212;49.734;8.490;2023-02-28T00:36:53;0.43;;;0.30;;
45466;SDS011;31212;49.734;8.490;2023-02-28T00:39:20;0.50;;;0.50;;
45466;SDS011;31212;49.734;8.490;2023-02-28T00:41:47;0.60;;;0.60;;
45466;SDS011;31212;49.734;8.490;2023-02-28T00:44:14;1.80;;;0.60;;
45466;SDS011;31212;49.734;8.490;2023-02-28T00:46:41;1.50;;;1.03;;
45466;SDS011;31212;49.734;8.490;2023-02-28T00:49:08;0.87;;;0.80;;
45466;SDS011;31212;49.734;8.490;2023-02-28T00:51:34;0.30;;;0.30;;
45466;SDS011;31212;49.734;8.490;2023-02-28T00:54:01;1.60;;;0.97;;
45466;SDS011;31212;49.734;8.490;2023-02-28T00:56:27;1.40;;;0.50;;
45466;SDS011;31212;49.734;8.490;2023-02-28T00:58:54;0.40;;;0.40;;
45466;SDS011;31212;49.734;8.490;2023-02-28T01:01:20;1.83;;;1.67;;
45466;SDS011;31212;49.734;8.490;2023-02-28T01:03:48;1.10;;;0.70;;
45466;SDS011;31212;49.734;8.490;2023-02-28T01:06:14;0.87;;;0.77;;
45466;SDS011;31212;49.734;8.490;2023-02-28T01:08:41;0.70;;;0.70;;
45466;SDS011;31212;49.734;8.490;2023-02-28T01:11:08;0.77;;;0.77;;
45466;SDS011;31212;49.734;8.490;2023-02-28T01:13:36;0.33;;;0.30;;
45466;SDS011;31212;49.734;8.490;2023-02-28T01:16:03;0.97;;;0.83;;
45466;SDS011;31212;49.734;8.490;2023-02-28T01:18:30;1.03;;;0.70;;
45466;SDS011;31212;49.734;8.490;2023-02-28T01:20:58;3.77;;;1.40;;
45466;SDS011;31212;49.734;8.490;2023-02-28T01:23:28;1.70;;;0.73;;
45466;SDS011;31212;49.734;8.490;2023-02-28T01:25:55;0.90;;;0.63;;
45466;SDS011;31212;49.734;8.490;2023-02-28T01:28:21;2.20;;;1.17;;
45466;SDS011;31212;49.734;8.490;2023-02-28T01:30:49;1.17;;;1.07;;
45466;SDS011;31212;49.734;8.490;2023-02-28T01:33:16;6.33;;;1.40;;
45466;SDS011;31212;49.734;8.490;2023-02-28T01:35:42;0.63;;;0.63;;
45466;SDS011;31212;49.734;8.490;2023-02-28T01:38:10;1.20;;;1.10;;
45466;SDS011;31212;49.734;8.490;2023-02-28T01:40:37;1.23;;;1.00;;
45466;SDS011;31212;49.734;8.490;2023-02-28T01:43:04;1.70;;;0.93;;
45466;SDS011;31212;49.734;8.490;2023-02-28T01:45:36;0.40;;;0.40;;
45466;SDS011;31212;49.734;8.490;2023-02-28T01:48:04;1.47;;;1.27;;
45466;SDS011;31212;49.734;8.490;2023-02-28T01:50:36;1.40;;;1.30;;
45466;SDS011;31212;49.734;8.490;2023-02-28T01:53:06;0.93;;;0.87;;
45466;SDS011;31212;49.734;8.490;2023-02-28T01:55:37;2.63;;;1.03;;
45466;SDS011;31212;49.734;8.490;2023-02-28T01:58:06;1.13;;;0.90;;
45466;SDS011;31212;49.734;8.490;2023-02-28T02:00:34;8.03;;;0.53;;
45466;SDS011;31212;49.734;8.490;2023-02-28T02:03:04;1.43;;;0.80;;
45466;SDS011;31212;49.734;8.490;2023-02-28T02:05:34;0.83;;;0.83;;
45466;SDS011;31212;49.734;8.490;2023-02-28T02:08:03;2.90;;;1.77;;
45466;SDS011;31212;49.734;8.490;2023-02-28T02:10:32;0.27;;;0.27;;
45466;SDS011;31212;49.734;8.490;2023-02-28T02:13:05;4.17;;;0.40;;
45466;SDS011;31212;49.734;8.490;2023-02-28T02:15:44;0.87;;;0.73;;
45466;SDS011;31212;49.734;8.490;2023-02-28T02:18:23;0.30;;;0.30;;
45466;SDS011;31212;49.734;8.490;2023-02-28T02:26:55;0.57;;;0.57;;
45466;SDS011;31212;49.734;8.490;2023-02-28T02:33:00;1.20;;;1.10;;
45466;SDS011;31212;49.734;8.490;2023-02-28T02:35:36;0.67;;;0.43;;
45466;SDS011;31212;49.734;8.490;2023-02-28T02:38:08;0.30;;;0.30;;
45466;SDS011;31212;49.734;8.490;2023-02-28T02:40:42;0.53;;;0.47;;
45466;SDS011;31212;49.734;8.490;2023-02-28T02:43:12;1.37;;;1.27;;
45466;SDS011;31212;49.734;8.490;2023-02-28T02:45:44;0.70;;;0.70;;
45466;SDS011;31212;49.734;8.490;2023-02-28T02:48:15;7.20;;;1.13;;
45466;SDS011;31212;49.734;8.490;2023-02-28T02:50:46;5.43;;;1.03;;
45466;SDS011;31212;49.734;8.490;2023-02-28T02:53:17;6.18;;;1.00;;
45466;SDS011;31212;49.734;8.490;2023-02-28T02:55:48;0.80;;;0.80;;
45466;SDS011;31212;49.734;8.490;2023-02-28T02:58:20;0.60;;;0.60;;
45466;SDS011;31212;49.734;8.490;2023-02-28T03:00:52;2.13;;;1.53;;
45466;SDS011;31212;49.734;8.490;2023-02-28T03:03:21;1.50;;;0.77;;
45466;SDS011;31212;49.734;8.490;2023-02-28T03:08:23;1.73;;;1.63;;
45466;SDS011;31212;49.734;8.490;2023-02-28T03:10:50;1.20;;;1.00;;
45466;SDS011;31212;49.734;8.490;2023-02-28T03:19:02;1.17;;;1.17;;
45466;SDS011;31212;49.734;8.490;2023-02-28T03:21:42;0.93;;;0.93;;
45466;SDS011;31212;49.734;8.490;2023-02-28T03:24:14;1.37;;;0.70;;
45466;SDS011;31212;49.734;8.490;2023-02-28T03:26:45;1.77;;;1.67;;
45466;SDS011;31212;49.734;8.490;2023-02-28T03:29:19;1.70;;;1.33;;
45466;SDS011;31212;49.734;8.490;2023-02-28T03:31:54;2.30;;;0.90;;
45466;SDS011;31212;49.734;8.490;2023-02-28T03:34:29;1.97;;;1.77;;
45466;SDS011;31212;49.734;8.490;2023-02-28T03:37:01;4.40;;;1.80;;
45466;SDS011;31212;49.734;8.490;2023-02-28T03:39:34;0.87;;;0.77;;
45466;SDS011;31212;49.734;8.490;2023-02-28T03:42:04;2.97;;;0.90;;
45466;SDS011;31212;49.734;8.490;2023-02-28T03:44:36;1.53;;;1.43;;
45466;SDS011;31212;49.734;8.490;2023-02-28T03:47:08;0.77;;;0.67;;
45466;SDS011;31212;49.734;8.490;2023-02-28T03:49:39;1.50;;;1.17;;
45466;SDS011;31212;49.734;8.490;2023-02-28T03:52:10;0.30;;;0.30;;
45466;SDS011;31212;49.734;8.490;2023-02-28T03:54:37;0.50;;;0.50;;
45466;SDS011;31212;49.734;8.490;2023-02-28T03:57:10;2.43;;;1.53;;
45466;SDS011;31212;49.734;8.490;2023-02-28T03:59:43;1.27;;;0.50;;
45466;SDS011;31212;49.734;8.490;2023-02-28T04:02:13;1.20;;;0.70;;
45466;SDS011;31212;49.734;8.490;2023-02-28T04:04:40;0.70;;;0.70;;
45466;SDS011;31212;49.734;8.490;2023-02-28T04:07:11;5.87;;;1.23;;
45466;SDS011;31212;49.734;8.490;2023-02-28T04:09:38;2.90;;;1.40;;
45466;SDS011;31212;49.734;8.490;2023-02-28T04:12:05;1.03;;;0.93;;
45466;SDS011;31212;49.734;8.490;2023-02-28T04:14:31;2.27;;;1.90;;
45466;SDS011;31212;49.734;8.490;2023-02-28T04:16:58;0.70;;;0.70;;
45466;SDS011;31212;49.734;8.490;2023-02-28T04:19:24;0.53;;;0.53;;
45466;SDS011;31212;49.734;8.490;2023-02-28T04:21:51;2.60;;;1.20;;
45466;SDS011;31212;49.734;8.490;2023-02-28T04:24:21;1.30;;;1.20;;
45466;SDS011;31212;49.734;8.490;2023-02-28T04:26:50;1.47;;;0.80;;
45466;SDS011;31212;49.734;8.490;2023-02-28T04:29:19;0.70;;;0.70;;
45466;SDS011;31212;49.734;8.490;2023-02-28T04:31:47;2.23;;;1.30;;
45466;SDS011;31212;49.734;8.490;2023-02-28T04:34:14;2.73;;;0.90;;
45466;SDS011;31212;49.734;8.490;2023-02-28T04:36:41;2.23;;;1.03;;
45466;SDS011;31212;49.734;8.490;2023-02-28T04:39:08;2.40;;;0.90;;
45466;SDS011;31212;49.734;8.490;2023-02-28T04:41:37;2.27;;;1.00;;
45466;SDS011;31212;49.734;8.490;2023-02-28T04:44:03;1.07;;;0.57;;
45466;SDS011;31212;49.734;8.490;2023-02-28T04:46:30;1.83;;;1.47;;
45466;SDS011;31212;49.734;8.490;2023-02-28T04:48:56;7.77;;;1.57;;
45466;SDS011;31212;49.734;8.490;2023-02-28T04:51:23;1.20;;;1.10;;
45466;SDS011;31212;49.734;8.490;2023-02-28T04:53:49;0.70;;;0.70;;
45466;SDS011;31212;49.734;8.490;2023-02-28T04:56:17;3.83;;;1.77;;
45466;SDS011;31212;49.734;8.490;2023-02-28T04:58:45;2.03;;;0.93;;
45466;SDS011;31212;49.734;8.490;2023-02-28T05:01:16;3.63;;;2.40;;
45466;SDS011;31212;49.734;8.490;2023-02-28T05:03:46;1.00;;;1.00;;
45466;SDS011;31212;49.734;8.490;2023-02-28T05:06:12;2.20;;;1.20;;
45466;SDS011;31212;49.734;8.490;2023-02-28T05:08:40;3.30;;;1.93;;
45466;SDS011;31212;49.734;8.490;2023-02-28T05:11:07;2.07;;;1.10;;
45466;SDS011;31212;49.734;8.490;2023-02-28T05:13:39;0.82;;;0.82;;
45466;SDS011;31212;49.734;8.490;2023-02-28T05:16:07;2.30;;;0.97;;
45466;SDS011;31212;49.734;8.490;2023-02-28T05:18:34;2.77;;;1.50;;
45466;SDS011;31212;49.734;8.490;2023-02-28T05:21:00;1.70;;;1.30;;
45466;SDS011;31212;49.734;8.490;2023-02-28T05:23:28;1.30;;;1.20;;
45466;SDS011;31212;49.734;8.490;2023-02-28T05:25:54;1.60;;;1.47;;
45466;SDS011;31212;49.734;8.490;2023-02-28T05:28:21;2.37;;;1.27;;
45466;SDS011;31212;49.734;8.490;2023-02-28T05:30:48;2.60;;;1.53;;
45466;SDS011;31212;49.734;8.490;2023-02-28T05:33:16;1.17;;;1.07;;
45466;SDS011;31212;49.734;8.490;2023-02-28T05:35:43;0.83;;;0.80;;
45466;SDS011;31212;49.734;8.490;2023-02-28T05:38:09;5.00;;;2.33;;
45466;SDS011;31212;49.734;8.490;2023-02-28T05:40:37;1.47;;;1.27;;
45466;SDS011;31212;49.734;8.490;2023-02-28T05:43:04;1.03;;;0.80;;
45466;SDS011;31212;49.734;8.490;2023-02-28T05:45:30;2.17;;;1.13;;
45466;SDS011;31212;49.734;8.490;2023-02-28T05:47:57;1.53;;;1.43;;
45466;SDS011;31212;49.734;8.490;2023-02-28T05:50:25;0.80;;;0.80;;
45466;SDS011;31212;49.734;8.490;2023-02-28T05:52:51;5.37;;;1.37;;
45466;SDS011;31212;49.734;8.490;2023-02-28T05:55:18;8.03;;;1.90;;
45466;SDS011;31212;49.734;8.490;2023-02-28T05:57:44;1.33;;;1.03;;
45466;SDS011;31212;49.734;8.490;2023-02-28T06:00:11;2.37;;;1.30;;
45466;SDS011;31212;49.734;8.490;2023-02-28T06:02:40;2.70;;;0.97;;
45466;SDS011;31212;49.734;8.490;2023-02-28T06:05:07;1.30;;;1.20;;
45466;SDS011;31212;49.734;8.490;2023-02-28T06:07:40;1.30;;;1.08;;
45466;SDS011;31212;49.734;8.490;2023-02-28T06:10:07;0.70;;;0.70;;
45466;SDS011;31212;49.734;8.490;2023-02-28T06:12:34;1.93;;;1.83;;
45466;SDS011;31212;49.734;8.490;2023-02-28T06:15:01;6.70;;;1.30;;
45466;SDS011;31212;49.734;8.490;2023-02-28T06:17:27;1.97;;;1.03;;
45466;SDS011;31212;49.734;8.490;2023-02-28T06:19:54;1.63;;;0.90;;
45466;SDS011;31212;49.734;8.490;2023-02-28T06:22:20;2.43;;;1.27;;
45466;SDS011;31212;49.734;8.490;2023-02-28T06:24:48;2.43;;;1.53;;
45466;SDS011;31212;49.734;8.490;2023-02-28T06:27:14;0.90;;;0.77;;
45466;SDS011;31212;49.734;8.490;2023-02-28T06:29:41;3.03;;;1.03;;
45466;SDS011;31212;49.734;8.490;2023-02-28T06:32:07;13.23;;;2.27;;
45466;SDS011;31212;49.734;8.490;2023-02-28T06:34:34;11.03;;;1.97;;
45466;SDS011;31212;49.734;8.490;2023-02-28T06:37:01;4.47;;;1.27;;
45466;SDS011;31212;49.734;8.490;2023-02-28T06:39:28;3.50;;;1.73;;
45466;SDS011;31212;49.734;8.490;2023-02-28T06:41:56;1.07;;;0.83;;
45466;SDS011;31212;49.734;8.490;2023-02-28T06:44:22;1.27;;;1.17;;
45466;SDS011;31212;49.734;8.490;2023-02-28T06:46:50;1.33;;;1.00;;
45466;SDS011;31212;49.734;8.490;2023-02-28T06:49:17;1.23;;;1.13;;
45466;SDS011;31212;49.734;8.490;2023-02-28T06:51:44;2.60;;;1.20;;
45466;SDS011;31212;49.734;8.490;2023-02-28T06:54:11;1.83;;;1.73;;
45466;SDS011;31212;49.734;8.490;2023-02-28T06:56:38;1.93;;;1.73;;
45466;SDS011;31212;49.734;8.490;2023-02-28T06:59:06;5.60;;;2.30;;
45466;SDS011;31212;49.734;8.490;2023-02-28T07:01:33;22.57;;;1.60;;
45466;SDS011;31212;49.734;8.490;2023-02-28T07:04:00;1.93;;;1.47;;
45466;SDS011;31212;49.734;8.490;2023-02-28T07:06:27;1.03;;;0.93;;
45466;SDS011;31212;49.734;8.490;2023-02-28T07:08:54;0.90;;;0.90;;
45466;SDS011;31212;49.734;8.490;2023-02-28T07:11:20;2.43;;;1.90;;
45466;SDS011;31212;49.734;8.490;2023-02-28T07:13:48;2.10;;;1.50;;
45466;SDS011;31212;49.734;8.490;2023-02-28T07:16:17;1.43;;;1.13;;
45466;SDS011;31212;49.734;8.490;2023-02-28T07:18:44;4.13;;;1.50;;
45466;SDS011;31212;49.734;8.490;2023-02-28T07:21:10;5.43;;;1.60;;
45466;SDS011;31212;49.734;8.490;2023-02-28T07:23:38;2.03;;;1.30;;
45466;SDS011;31212;49.734;8.490;2023-02-28T07:26:05;1.57;;;1.47;;
45466;SDS011;31212;49.734;8.490;2023-02-28T07:28:33;2.03;;;1.67;;
45466;SDS011;31212;49.734;8.490;2023-02-28T07:31:02;1.13;;;1.00;;
45466;SDS011;31212;49.734;8.490;2023-02-28T07:33:31;2.17;;;1.30;;
45466;SDS011;31212;49.734;8.490;2023-02-28T07:36:02;1.63;;;1.53;;
45466;SDS011;31212;49.734;8.490;2023-02-28T07:38:30;1.53;;;1.30;;
45466;SDS011;31212;49.734;8.490;2023-02-28T07:40:57;3.20;;;2.10;;
45466;SDS011;31212;49.734;8.490;2023-02-28T07:43:23;3.50;;;1.57;;
45466;SDS011;31212;49.734;8.490;2023-02-28T07:45:49;1.70;;;1.33;;
45466;SDS011;31212;49.734;8.490;2023-02-28T07:48:16;2.33;;;1.20;;
45466;SDS011;31212;49.734;8.490;2023-02-28T07:50:44;5.70;;;2.53;;
45466;SDS011;31212;49.734;8.490;2023-02-28T07:53:13;1.00;;;0.87;;
45466;SDS011;31212;49.734;8.490;2023-02-28T07:55:39;0.90;;;0.83;;
45466;SDS011;31212;49.734;8.490;2023-02-28T07:58:06;3.97;;;1.97;;
45466;SDS011;31212;49.734;8.490;2023-02-28T08:00:32;2.07;;;1.10;;
45466;SDS011;31212;49.734;8.490;2023-02-28T08:02:59;1.20;;;1.00;;
45466;SDS011;31212;49.734;8.490;2023-02-28T08:05:25;2.20;;;1.27;;
45466;SDS011;31212;49.734;8.490;2023-02-28T08:07:53;1.33;;;1.10;;
45466;SDS011;31212;49.734;8.490;2023-02-28T08:10:19;1.97;;;1.37;;
45466;SDS011;31212;49.734;8.490;2023-02-28T08:12:46;1.23;;;0.97;;
45466;SDS011;31212;49.734;8.490;2023-02-28T08:15:12;4.80;;;2.57;;
45466;SDS011;31212;49.734;8.490;2023-02-28T08:17:39;1.83;;;0.87;;
45466;SDS011;31212;49.734;8.490;2023-02-28T08:20:06;1.43;;;0.93;;
45466;SDS011;31212;49.734;8.490;2023-02-28T08:22:34;1.50;;;1.03;;
45466;SDS011;31212;49.734;8.490;2023-02-28T08:25:02;0.93;;;0.73;;
45466;SDS011;31212;49.734;8.490;2023-02-28T08:27:28;1.13;;;1.07;;
45466;SDS011;31212;49.734;8.490;2023-02-28T08:29:55;0.70;;;0.70;;
45466;SDS011;31212;49.734;8.490;2023-02-28T08:32:21;1.30;;;1.20;;
45466;SDS011;31212;49.734;8.490;2023-02-28T08:34:48;1.77;;;1.63;;
45466;SDS011;31212;49.734;8.490;2023-02-28T08:37:14;1.80;;;1.23;;
45466;SDS011;31212;49.734;8.490;2023-02-28T08:39:41;1.13;;;1.03;;
45466;SDS011;31212;49.734;8.490;2023-02-28T08:42:09;3.33;;;1.13;;
45466;SDS011;31212;49.734;8.490;2023-02-28T08:44:35;2.30;;;1.20;;
45466;SDS011;31212;49.734;8.490;2023-02-28T08:47:02;1.70;;;1.43;;
45466;SDS011;31212;49.734;8.490;2023-02-28T08:49:28;2.73;;;2.07;;
45466;SDS011;31212;49.734;8.490;2023-02-28T08:51:54;4.57;;;1.60;;
45466;SDS011;31212;49.734;8.490;2023-02-28T08:54:22;2.72;;;1.85;;
45466;SDS011;31212;49.734;8.490;2023-02-28T08:56:48;5.72;;;1.80;;
45466;SDS011;31212;49.734;8.490;2023-02-28T08:59:16;2.85;;;2.13;;
45466;SDS011;31212;49.734;8.490;2023-02-28T09:01:43;2.97;;;1.42;;
45466;SDS011;31212;49.734;8.490;2023-02-28T09:04:09;2.28;;;1.30;;
45466;SDS011;31212;49.734;8.490;2023-02-28T09:06:36;2.63;;;1.58;;
45466;SDS011;31212;49.734;8.490;2023-02-28T09:09:03;4.03;;;1.67;;
45466;SDS011;31212;49.734;8.490;2023-02-28T09:11:32;5.65;;;1.50;;
45466;SDS011;31212;49.734;8.490;2023-02-28T09:13:59;7.05;;;1.58;;
45466;SDS011;31212;49.734;8.490;2023-02-28T09:16:30;3.83;;;2.17;;
45466;SDS011;31212;49.734;8.490;2023-02-28T09:18:57;1.50;;;1.17;;
45466;SDS011;31212;49.734;8.490;2023-02-28T09:21:24;6.53;;;1.98;;
45466;SDS011;31212;49.734;8.490;2023-02-28T09:23:50;5.57;;;2.42;;
45466;SDS011;31212;49.734;8.490;2023-02-28T09:26:18;3.80;;;2.03;;
45466;SDS011;31212;49.734;8.490;2023-02-28T09:28:47;2.67;;;2.00;;
45466;SDS011;31212;49.734;8.490;2023-02-28T09:31:14;6.80;;;2.55;;
45466;SDS011;31212;49.734;8.490;2023-02-28T09:33:43;6.00;;;2.30;;
45466;SDS011;31212;49.734;8.490;2023-02-28T09:36:09;8.27;;;2.03;;
45466;SDS011;31212;49.734;8.490;2023-02-28T09:38:36;3.25;;;2.03;;
45466;SDS011;31212;49.734;8.490;2023-02-28T09:41:03;3.00;;;1.58;;
45466;SDS011;31212;49.734;8.490;2023-02-28T09:43:37;3.55;;;2.05;;
45466;SDS011;31212;49.734;8.490;2023-02-28T09:46:08;4.85;;;1.88;;
45466;SDS011;31212;49.734;8.490;2023-02-28T09:48:47;3.10;;;2.03;;
45466;SDS011;31212;49.734;8.490;2023-02-28T09:51:17;2.80;;;1.67;;
45466;SDS011;31212;49.734;8.490;2023-02-28T09:53:53;2.17;;;1.77;;
45466;SDS011;31212;49.734;8.490;2023-02-28T09:56:20;3.85;;;1.88;;
45466;SDS011;31212;49.734;8.490;2023-02-28T09:58:53;5.03;;;2.33;;
45466;SDS011;31212;49.734;8.490;2023-02-28T10:01:24;3.88;;;1.75;;
45466;SDS011;31212;49.734;8.490;2023-02-28T10:03:59;2.65;;;1.75;;
45466;SDS011;31212;49.734;8.490;2023-02-28T10:06:30;3.88;;;2.15;;
45466;SDS011;31212;49.734;8.490;2023-02-28T10:09:03;6.80;;;2.25;;
45466;SDS011;31212;49.734;8.490;2023-02-28T10:11:35;3.20;;;1.70;;
45466;SDS011;31212;49.734;8.490;2023-02-28T10:14:04;6.32;;;2.30;;
45466;SDS011;31212;49.734;8.490;2023-02-28T10:16:36;6.75;;;2.28;;
45466;SDS011;31212;49.734;8.490;2023-02-28T10:19:09;3.80;;;1.90;;
45466;SDS011;31212;49.734;8.490;2023-02-28T10:21:41;5.47;;;2.72;;
45466;SDS011;31212;49.734;8.490;2023-02-28T10:24:15;2.47;;;2.00;;
45466;SDS011;31212;49.734;8.490;2023-02-28T10:26:47;3.30;;;1.83;;
45466;SDS011;31212;49.734;8.490;2023-02-28T10:29:14;12.63;;;2.73;;
45466;SDS011;31212;49.734;8.490;2023-02-28T10:31:41;4.60;;;2.40;;
45466;SDS011;31212;49.734;8.490;2023-02-28T10:34:09;5.27;;;2.23;;
45466;SDS011;31212;49.734;8.490;2023-02-28T10:36:38;3.25;;;1.63;;
45466;SDS011;31212;49.734;8.490;2023-02-28T10:42:18;3.50;;;1.95;;
45466;SDS011;31212;49.734;8.490;2023-02-28T10:44:46;3.25;;;2.22;;
45466;SDS011;31212;49.734;8.490;2023-02-28T10:47:13;3.58;;;1.80;;
45466;SDS011;31212;49.734;8.490;2023-02-28T10:49:43;3.30;;;2.25;;
45466;SDS011;31212;49.734;8.490;2023-02-28T10:52:14;5.25;;;3.15;;
45466;SDS011;31212;49.734;8.490;2023-02-28T10:55:13;5.68;;;2.45;;
45466;SDS011;31212;49.734;8.490;2023-02-28T10:57:42;5.13;;;2.40;;
45466;SDS011;31212;49.734;8.490;2023-02-28T11:00:12;3.92;;;1.58;;
45466;SDS011;31212;49.734;8.490;2023-02-28T11:02:42;3.33;;;2.28;;
45466;SDS011;31212;49.734;8.490;2023-02-28T11:05:24;7.05;;;2.63;;
45466;SDS011;31212;49.734;8.490;2023-02-28T11:07:53;4.45;;;2.78;;
45466;SDS011;31212;49.734;8.490;2023-02-28T11:10:22;5.60;;;2.65;;
45466;SDS011;31212;49.734;8.490;2023-02-28T11:12:54;3.45;;;2.13;;
45466;SDS011;31212;49.734;8.490;2023-02-28T11:15:22;2.97;;;2.03;;
45466;SDS011;31212;49.734;8.490;2023-02-28T11:17:54;6.07;;;2.30;;
45466;SDS011;31212;49.734;8.490;2023-02-28T11:20:23;4.88;;;2.47;;
45466;SDS011;31212;49.734;8.490;2023-02-28T11:22:54;4.97;;;2.37;;
45466;SDS011;31212;49.734;8.490;2023-02-28T11:25:22;4.90;;;2.57;;
45466;SDS011;31212;49.734;8.490;2023-02-28T11:27:52;3.57;;;2.20;;
45466;SDS011;31212;49.734;8.490;2023-02-28T11:30:26;3.13;;;1.90;;
45466;SDS011;31212;49.734;8.490;2023-02-28T11:32:55;3.57;;;2.10;;
45466;SDS011;31212;49.734;8.490;2023-02-28T11:35:23;3.70;;;2.43;;
45466;SDS011;31212;49.734;8.490;2023-02-28T11:37:53;4.30;;;2.40;;
45466;SDS011;31212;49.734;8.490;2023-02-28T11:40:21;4.07;;;2.43;;
45466;SDS011;31212;49.734;8.490;2023-02-28T11:42:55;3.73;;;1.73;;
45466;SDS011;31212;49.734;8.490;2023-02-28T11:45:40;5.23;;;2.30;;
45466;SDS011;31212;49.734;8.490;2023-02-28T11:48:18;3.40;;;2.17;;
45466;SDS011;31212;49.734;8.490;2023-02-28T11:50:52;8.10;;;3.30;;
45466;SDS011;31212;49.734;8.490;2023-02-28T11:53:32;6.90;;;3.10;;
45466;SDS011;31212;49.734;8.490;2023-02-28T11:56:10;6.83;;;2.97;;
45466;SDS011;31212;49.734;8.490;2023-02-28T11:58:47;2.60;;;1.70;;
45466;SDS011;31212;49.734;8.490;2023-02-28T12:01:27;4.40;;;2.63;;
45466;SDS011;31212;49.734;8.490;2023-02-28T12:04:04;4.07;;;2.83;;
45466;SDS011;31212;49.734;8.490;2023-02-28T12:06:45;3.53;;;2.40;;
45466;SDS011;31212;49.734;8.490;2023-02-28T12:09:23;3.23;;;2.40;;
45466;SDS011;31212;49.734;8.490;2023-02-28T12:12:02;2.63;;;2.35;;
45466;SDS011;31212;49.734;8.490;2023-02-28T12:17:35;7.87;;;3.53;;
45466;SDS011;31212;49.734;8.490;2023-02-28T12:20:12;3.97;;;2.53;;
45466;SDS011;31212;49.734;8.490;2023-02-28T12:22:50;5.87;;;2.57;;
45466;SDS011;31212;49.734;8.490;2023-02-28T12:25:33;3.57;;;2.47;;
45466;SDS011;31212;49.734;8.490;2023-02-28T12:28:13;4.00;;;2.87;;
45466;SDS011;31212;49.734;8.490;2023-02-28T12:30:44;7.77;;;2.87;;
45466;SDS011;31212;49.734;8.490;2023-02-28T12:33:17;4.73;;;2.27;;
45466;SDS011;31212;49.734;8.490;2023-02-28T12:35:49;6.13;;;3.23;;
45466;SDS011;31212;49.734;8.490;2023-02-28T12:38:22;6.20;;;3.00;;
45466;SDS011;31212;49.734;8.490;2023-02-28T12:40:52;6.47;;;2.83;;
45466;SDS011;31212;49.734;8.490;2023-02-28T12:43:22;6.67;;;2.70;;
45466;SDS011;31212;49.734;8.490;2023-02-28T12:45:55;5.95;;;3.10;;
45466;SDS011;31212;49.734;8.490;2023-02-28T12:48:25;7.50;;;3.50;;
45466;SDS011;31212;49.734;8.490;2023-02-28T12:50:56;5.30;;;2.50;;
45466;SDS011;31212;49.734;8.490;2023-02-28T12:53:27;4.00;;;2.73;;
45466;SDS011;31212;49.734;8.490;2023-02-28T12:56:04;3.67;;;2.73;;
45466;SDS011;31212;49.734;8.490;2023-02-28T12:58:43;10.80;;;3.83;;
45466;SDS011;31212;49.734;8.490;2023-02-28T13:01:27;7.37;;;2.93;;
45466;SDS011;31212;49.734;8.490;2023-02-28T13:07:21;5.60;;;2.57;;
45466;SDS011;31212;49.734;8.490;2023-02-28T13:10:11;5.03;;;3.00;;
45466;SDS011;31212;49.734;8.490;2023-02-28T13:12:41;3.90;;;2.47;;
45466;SDS011;31212;49.734;8.490;2023-02-28T13:15:16;3.97;;;2.53;;
45466;SDS011;31212;49.734;8.490;2023-02-28T13:17:48;5.90;;;2.93;;
45466;SDS011;31212;49.734;8.490;2023-02-28T13:20:17;4.93;;;2.73;;
45466;SDS011;31212;49.734;8.490;2023-02-28T13:22:45;5.87;;;3.90;;
45466;SDS011;31212;49.734;8.490;2023-02-28T13:31:19;7.30;;;2.53;;
45466;SDS011;31212;49.734;8.490;2023-02-28T13:34:05;5.50;;;2.63;;
45466;SDS011;31212;49.734;8.490;2023-02-28T13:36:39;3.95;;;2.00;;
45466;SDS011;31212;49.734;8.490;2023-02-28T13:47:52;7.10;;;3.03;;
45466;SDS011;31212;49.734;8.490;2023-02-28T13:52:52;4.43;;;3.07;;
45466;SDS011;31212;49.734;8.490;2023-02-28T13:55:29;3.47;;;2.27;;
45466;SDS011;31212;49.734;8.490;2023-02-28T13:58:07;6.70;;;2.67;;
45466;SDS011;31212;49.734;8.490;2023-02-28T14:00:50;4.35;;;2.58;;
45466;SDS011;31212;49.734;8.490;2023-02-28T14:03:40;5.37;;;2.50;;
45466;SDS011;31212;49.734;8.490;2023-02-28T14:06:22;5.87;;;3.03;;
45466;SDS011;31212;49.734;8.490;2023-02-28T14:08:54;4.40;;;2.47;;
45466;SDS011;31212;49.734;8.490;2023-02-28T14:11:24;3.70;;;2.23;;
45466;SDS011;31212;49.734;8.490;2023-02-28T14:16:23;4.67;;;2.30;;
45466;SDS011;31212;49.734;8.490;2023-02-28T14:18:56;6.80;;;3.63;;
45466;SDS011;31212;49.734;8.490;2023-02-28T14:21:26;4.43;;;2.70;;
45466;SDS011;31212;49.734;8.490;2023-02-28T14:23:59;9.98;;;4.07;;
45466;SDS011;31212;49.734;8.490;2023-02-28T14:26:43;7.57;;;3.30;;
45466;SDS011;31212;49.734;8.490;2023-02-28T14:32:54;8.20;;;3.27;;
45466;SDS011;31212;49.734;8.490;2023-02-28T14:35:39;7.07;;;2.87;;
45466;SDS011;31212;49.734;8.490;2023-02-28T14:38:18;4.60;;;2.20;;
45466;SDS011;31212;49.734;8.490;2023-02-28T14:40:49;7.35;;;2.75;;
45466;SDS011;31212;49.734;8.490;2023-02-28T14:43:19;5.50;;;2.77;;
45466;SDS011;31212;49.734;8.490;2023-02-28T14:45:49;5.67;;;3.17;;
45466;SDS011;31212;49.734;8.490;2023-02-28T14:48:17;4.30;;;2.57;;
45466;SDS011;31212;49.734;8.490;2023-02-28T14:50:49;2.10;;;1.57;;
45466;SDS011;31212;49.734;8.490;2023-02-28T14:53:20;5.80;;;2.63;;
45466;SDS011;31212;49.734;8.490;2023-02-28T14:55:48;4.90;;;2.20;;
45466;SDS011;31212;49.734;8.490;2023-02-28T14:58:25;4.63;;;2.57;;
45466;SDS011;31212;49.734;8.490;2023-02-28T15:00:53;7.63;;;3.28;;
45466;SDS011;31212;49.734;8.490;2023-02-28T15:03:22;7.83;;;3.73;;
45466;SDS011;31212;49.734;8.490;2023-02-28T15:05:54;5.47;;;2.57;;
45466;SDS011;31212;49.734;8.490;2023-02-28T15:08:22;3.17;;;2.27;;
45466;SDS011;31212;49.734;8.490;2023-02-28T15:10:53;6.37;;;3.13;;
45466;SDS011;31212;49.734;8.490;2023-02-28T15:13:21;5.53;;;2.30;;
45466;SDS011;31212;49.734;8.490;2023-02-28T15:15:50;5.33;;;3.13;;
45466;SDS011;31212;49.734;8.490;2023-02-28T15:18:26;7.03;;;4.10;;
45466;SDS011;31212;49.734;8.490;2023-02-28T15:21:00;6.90;;;3.07;;
45466;SDS011;31212;49.734;8.490;2023-02-28T15:23:29;2.83;;;2.27;;
45466;SDS011;31212;49.734;8.490;2023-02-28T15:25:56;9.37;;;2.63;;
45466;SDS011;31212;49.734;8.490;2023-02-28T15:28:24;5.97;;;3.00;;
45466;SDS011;31212;49.734;8.490;2023-02-28T15:30:52;6.33;;;2.63;;
45466;SDS011;31212;49.734;8.490;2023-02-28T15:33:22;5.80;;;2.67;;
45466;SDS011;31212;49.734;8.490;2023-02-28T15:35:50;5.60;;;2.67;;
45466;SDS011;31212;49.734;8.490;2023-02-28T15:38:21;5.50;;;3.00;;
45466;SDS011;31212;49.734;8.490;2023-02-28T15:40:50;8.93;;;3.42;;
45466;SDS011;31212;49.734;8.490;2023-02-28T15:43:24;5.20;;;2.97;;
45466;SDS011;31212;49.734;8.490;2023-02-28T15:45:52;7.23;;;3.27;;
45466;SDS011;31212;49.734;8.490;2023-02-28T15:48:24;6.80;;;2.93;;
45466;SDS011;31212;49.734;8.490;2023-02-28T15:50:53;6.67;;;3.37;;
45466;SDS011;31212;49.734;8.490;2023-02-28T15:53:23;3.83;;;2.27;;